Bay Wolf — WDF4104 — position and weather

sailwx.info

Track history (hours):
 
Tides and Currents Weather Stations Pressure Air Temp Water Temp Dewpoint Dewpoint Depression Visibility Wind Speed Wind Dir Waves Ship Positions

Bay Wolf

Owner: Captain Kirk's San francisco Sailing, LLC, Palo Alto, CA. More information available from US FCC via Universal Licensing System and Coast Guard Vessel Documentation Center.

Last reported at 2017-Nov-19 00:34 UTC. Time now 2017-Nov-19 14:11 UTC.
Position N 37°51' W 122°26'.

Length 16 m.

Type: Sailing vessel. MMSI: 367448040.

Date/timePositionNaut miles runAvg speedWind from/ knotsBaromVisibWave heightAir tempDewpointWater temp
2017-Nov-19 00:34N 37°51' W 122°26'1 8.3
2017-Nov-19 00:30N 37°50' W 122°26'2 3.2
2017-Nov-19 00:00N 37°49' W 122°27'2 3.4
2017-Nov-18 23:30N 37°49' W 122°29'0 0.7
2017-Nov-18 23:00N 37°49' W 122°29'  
2017-Nov-16 02:42N 37°52' W 122°29'1 7.1
2017-Nov-16 02:30N 37°51' W 122°27'3 6.3
2017-Nov-16 02:00N 37°49' W 122°24'2 4.4
2017-Nov-16 01:30N 37°47' W 122°23'3 6.3
2017-Nov-16 01:00N 37°49' W 122°26'4 7.1
2017-Nov-16 00:30N 37°49' W 122°30'2 3.2
2017-Nov-16 00:00N 37°49' W 122°28'3 6.4
2017-Nov-15 23:29N 37°49' W 122°24'2 3.6
2017-Nov-15 22:56N 37°47' W 122°23'0 0.0
2017-Nov-15 22:29N 37°47' W 122°23'2 3.5
2017-Nov-15 22:00N 37°48' W 122°24'2 4.1
2017-Nov-15 21:30N 37°49' W 122°27'2 3.1
2017-Nov-15 21:00N 37°49' W 122°28'0 0.0
2017-Nov-15 20:28N 37°49' W 122°28'1 1.3
2017-Nov-15 20:00N 37°50' W 122°28'3 5.7
2017-Nov-15 19:27N 37°48' W 122°24'2 3.5
2017-Nov-15 18:58N 37°47' W 122°23'1 1.7
2017-Nov-15 18:30N 37°48' W 122°23'3 6.7
2017-Nov-15 18:00N 37°50' W 122°26'  
2017-Nov-13 00:56N 37°52' W 122°29'2 3.6
2017-Nov-13 00:30N 37°51' W 122°27'1 2.7
2017-Nov-13 00:00N 37°50' W 122°26'1 1.1
2017-Nov-12 23:30N 37°49' W 122°27'2 3.7
2017-Nov-12 22:57N 37°51' W 122°28'1 0.2
2017-Nov-12 19:48N 37°52' W 122°29'0 0.0
2017-Nov-12 01:55N 37°52' W 122°29'3 6.5
2017-Nov-12 01:30N 37°50' W 122°26'3 6.2
2017-Nov-12 01:00N 37°48' W 122°23'1 1.9
2017-Nov-12 00:30N 37°47' W 122°23'2 4.6
2017-Nov-11 23:59N 37°49' W 122°25'2 4.6
2017-Nov-11 23:30N 37°50' W 122°27'2 3.1
2017-Nov-11 23:00N 37°49' W 122°29'2 4.3
2017-Nov-11 22:30N 37°49' W 122°27'3 5.1
2017-Nov-11 22:00N 37°48' W 122°23'1 1.8
2017-Nov-11 21:24N 37°47' W 122°23'0 0.0
2017-Nov-11 20:55N 37°47' W 122°23'2 5.2
2017-Nov-11 20:29N 37°49' W 122°25'2 3.8
2017-Nov-11 20:00N 37°49' W 122°27'2 4.2
2017-Nov-11 19:30N 37°49' W 122°24'2 2.8
2017-Nov-11 18:47N 37°47' W 122°23'0 0.2
2017-Nov-11 18:30N 37°47' W 122°23'2 5.0
2017-Nov-11 18:00N 37°49' W 122°25'3 5.2
2017-Nov-11 17:29N 37°51' W 122°27'2 0.1
2017-Nov-10 21:25N 37°52' W 122°30'2 4.9
2017-Nov-10 21:00N 37°51' W 122°27'3 6.7
2017-Nov-10 20:30N 37°49' W 122°24'2 4.2
2017-Nov-10 20:00N 37°47' W 122°23'0 0.2
2017-Nov-10 18:49N 37°47' W 122°23'2 5.4
2017-Nov-10 18:25N 37°49' W 122°24'2 5.9
2017-Nov-10 18:00N 37°50' W 122°27'2 0.1
2017-Nov-09 23:11N 37°52' W 122°29'1 6.6
2017-Nov-09 23:00N 37°51' W 122°27'3 6.1
2017-Nov-09 22:30N 37°49' W 122°24'2 4.8
2017-Nov-09 22:00N 37°47' W 122°23'2 2.9
2017-Nov-09 21:29N 37°48' W 122°24'2 5.0
2017-Nov-09 21:00N 37°49' W 122°27'1 2.3
2017-Nov-09 20:30N 37°49' W 122°28'1 2.4
2017-Nov-09 20:00N 37°50' W 122°28'1 2.4
2017-Nov-09 19:30N 37°50' W 122°26'2 4.4
2017-Nov-09 19:00N 37°49' W 122°24'2 3.2
2017-Nov-09 18:25N 37°47' W 122°23'2 3.6
2017-Nov-09 17:57N 37°48' W 122°24'3 7.3
2017-Nov-09 17:30N 37°51' W 122°27'2 0.1
2017-Nov-09 01:40N 37°52' W 122°29'0 2.2
2017-Nov-09 01:30N 37°51' W 122°28'2 4.5
2017-Nov-09 01:00N 37°49' W 122°29'  
Track history (hours):
 
Tides and Currents Weather Stations Pressure Air Temp Water Temp Dewpoint Dewpoint Depression Visibility Wind Speed Wind Dir Waves Ship Positions

Bay Wolf

Owner: Captain Kirk's San francisco Sailing, LLC, Palo Alto, CA. More information available from US FCC via Universal Licensing System and Coast Guard Vessel Documentation Center.

Last reported at 2017-Nov-19 00:34 UTC. Time now 2017-Nov-19 14:11 UTC.
Position N 37°51' W 122°26'.

Length 16 m.

Type: Sailing vessel. MMSI: 367448040.

Date/timePositionNaut miles runAvg speedWind from/ knotsBaromVisibWave heightAir tempDewpointWater temp
2017-Nov-19 00:34N 37°51' W 122°26'1 8.3
2017-Nov-19 00:30N 37°50' W 122°26'2 3.2
2017-Nov-19 00:00N 37°49' W 122°27'2 3.4
2017-Nov-18 23:30N 37°49' W 122°29'0 0.7
2017-Nov-18 23:00N 37°49' W 122°29'  
2017-Nov-16 02:42N 37°52' W 122°29'1 7.1
2017-Nov-16 02:30N 37°51' W 122°27'3 6.3
2017-Nov-16 02:00N 37°49' W 122°24'2 4.4
2017-Nov-16 01:30N 37°47' W 122°23'3 6.3
2017-Nov-16 01:00N 37°49' W 122°26'4 7.1
2017-Nov-16 00:30N 37°49' W 122°30'2 3.2
2017-Nov-16 00:00N 37°49' W 122°28'3 6.4
2017-Nov-15 23:29N 37°49' W 122°24'2 3.6
2017-Nov-15 22:56N 37°47' W 122°23'0 0.0
2017-Nov-15 22:29N 37°47' W 122°23'2 3.5
2017-Nov-15 22:00N 37°48' W 122°24'2 4.1
2017-Nov-15 21:30N 37°49' W 122°27'2 3.1
2017-Nov-15 21:00N 37°49' W 122°28'0 0.0
2017-Nov-15 20:28N 37°49' W 122°28'1 1.3
2017-Nov-15 20:00N 37°50' W 122°28'3 5.7
2017-Nov-15 19:27N 37°48' W 122°24'2 3.5
2017-Nov-15 18:58N 37°47' W 122°23'1 1.7
2017-Nov-15 18:30N 37°48' W 122°23'3 6.7
2017-Nov-15 18:00N 37°50' W 122°26'  
2017-Nov-13 00:56N 37°52' W 122°29'2 3.6
2017-Nov-13 00:30N 37°51' W 122°27'1 2.7
2017-Nov-13 00:00N 37°50' W 122°26'1 1.1
2017-Nov-12 23:30N 37°49' W 122°27'2 3.7
2017-Nov-12 22:57N 37°51' W 122°28'1 0.2
2017-Nov-12 19:48N 37°52' W 122°29'0 0.0
2017-Nov-12 01:55N 37°52' W 122°29'3 6.5
2017-Nov-12 01:30N 37°50' W 122°26'3 6.2
2017-Nov-12 01:00N 37°48' W 122°23'1 1.9
2017-Nov-12 00:30N 37°47' W 122°23'2 4.6
2017-Nov-11 23:59N 37°49' W 122°25'2 4.6
2017-Nov-11 23:30N 37°50' W 122°27'2 3.1
2017-Nov-11 23:00N 37°49' W 122°29'2 4.3
2017-Nov-11 22:30N 37°49' W 122°27'3 5.1
2017-Nov-11 22:00N 37°48' W 122°23'1 1.8
2017-Nov-11 21:24N 37°47' W 122°23'0 0.0
2017-Nov-11 20:55N 37°47' W 122°23'2 5.2
2017-Nov-11 20:29N 37°49' W 122°25'2 3.8
2017-Nov-11 20:00N 37°49' W 122°27'2 4.2
2017-Nov-11 19:30N 37°49' W 122°24'2 2.8
2017-Nov-11 18:47N 37°47' W 122°23'0 0.2
2017-Nov-11 18:30N 37°47' W 122°23'2 5.0
2017-Nov-11 18:00N 37°49' W 122°25'3 5.2
2017-Nov-11 17:29N 37°51' W 122°27'2 0.1
2017-Nov-10 21:25N 37°52' W 122°30'2 4.9
2017-Nov-10 21:00N 37°51' W 122°27'3 6.7
2017-Nov-10 20:30N 37°49' W 122°24'2 4.2
2017-Nov-10 20:00N 37°47' W 122°23'0 0.2
2017-Nov-10 18:49N 37°47' W 122°23'2 5.4
2017-Nov-10 18:25N 37°49' W 122°24'2 5.9
2017-Nov-10 18:00N 37°50' W 122°27'2 0.1
2017-Nov-09 23:11N 37°52' W 122°29'1 6.6
2017-Nov-09 23:00N 37°51' W 122°27'3 6.1
2017-Nov-09 22:30N 37°49' W 122°24'2 4.8
2017-Nov-09 22:00N 37°47' W 122°23'2 2.9
2017-Nov-09 21:29N 37°48' W 122°24'2 5.0
2017-Nov-09 21:00N 37°49' W 122°27'1 2.3
2017-Nov-09 20:30N 37°49' W 122°28'1 2.4
2017-Nov-09 20:00N 37°50' W 122°28'1 2.4
2017-Nov-09 19:30N 37°50' W 122°26'2 4.4
2017-Nov-09 19:00N 37°49' W 122°24'2 3.2
2017-Nov-09 18:25N 37°47' W 122°23'2 3.6
2017-Nov-09 17:57N 37°48' W 122°24'3 7.3
2017-Nov-09 17:30N 37°51' W 122°27'2 0.1
2017-Nov-09 01:40N 37°52' W 122°29'0 2.2
2017-Nov-09 01:30N 37°51' W 122°28'2 4.5
2017-Nov-09 01:00N 37°49' W 122°29'  

Dump ship's entire track history